createdAt,value
2023-02-06T00:01:32.025Z,103638.63
2023-02-06T00:03:58.725Z,103632.00
2023-02-06T00:06:25.336Z,103634.34
2023-02-06T00:08:51.972Z,103631.00
2023-02-06T00:11:18.934Z,103628.38
2023-02-06T00:13:45.731Z,103630.28
2023-02-06T00:16:23.870Z,103633.22
2023-02-06T00:18:51.288Z,103644.28
2023-02-06T00:21:22.157Z,103653.31
2023-02-06T00:23:49.386Z,103656.25
2023-02-06T00:26:16.132Z,103658.13
2023-02-06T00:28:43.421Z,103653.63
2023-02-06T00:31:10.673Z,103655.91
2023-02-06T00:33:38.850Z,103661.84
2023-02-06T00:36:06.213Z,103665.47
2023-02-06T00:38:33.031Z,103662.97
2023-02-06T00:40:59.792Z,103664.75
2023-02-06T00:43:26.385Z,103663.56
2023-02-06T00:45:54.104Z,103654.72
2023-02-06T00:48:22.410Z,103655.63
2023-02-06T00:50:50.181Z,103659.44
2023-02-06T00:53:16.940Z,103655.34
2023-02-06T00:55:43.898Z,103658.84
2023-02-06T00:58:10.998Z,103652.00
2023-02-06T01:00:37.778Z,103659.06
2023-02-06T01:03:04.489Z,103648.78
2023-02-06T01:05:31.170Z,103640.94
2023-02-06T01:07:57.799Z,103648.69
2023-02-06T01:10:25.174Z,103648.50
2023-02-06T01:12:51.881Z,103649.69
2023-02-06T01:15:18.577Z,103657.03
2023-02-06T01:17:45.239Z,103637.22
2023-02-06T01:20:15.158Z,103634.63
2023-02-06T01:22:41.953Z,103650.22
2023-02-06T01:25:11.714Z,103658.13
2023-02-06T01:27:39.138Z,103646.00
2023-02-06T01:30:07.511Z,103648.41
2023-02-06T01:32:38.481Z,103641.38
2023-02-06T01:35:06.978Z,103641.44
2023-02-06T01:37:34.523Z,103643.16
2023-02-06T01:40:01.203Z,103639.94
2023-02-06T01:42:27.870Z,103628.38
2023-02-06T01:45:39.849Z,103628.59
2023-02-06T01:48:10.450Z,103626.78
2023-02-06T01:50:39.898Z,103609.41
2023-02-06T01:53:09.411Z,103612.03
2023-02-06T01:55:40.965Z,103609.69
2023-02-06T01:58:09.749Z,103600.25
2023-02-06T02:00:36.508Z,103605.81
2023-02-06T02:03:04.154Z,103601.38
2023-02-06T02:05:34.446Z,103601.38
2023-02-06T02:08:07.042Z,103603.69
2023-02-06T02:10:35.154Z,103589.72
2023-02-06T02:13:02.054Z,103603.28
2023-02-06T02:16:18.486Z,103592.25
2023-02-06T02:19:03.607Z,103591.22
2023-02-06T02:21:48.979Z,103584.00
2023-02-06T02:24:44.639Z,103582.06
2023-02-06T02:27:32.908Z,103571.63
2023-02-06T02:30:14.707Z,103572.44
2023-02-06T02:33:13.141Z,103570.63
2023-02-06T02:36:15.448Z,103571.22
2023-02-06T02:39:20.168Z,103564.41
2023-02-06T02:42:13.959Z,103555.66
2023-02-06T02:44:51.596Z,103561.38
2023-02-06T02:47:21.884Z,103555.78
2023-02-06T02:49:48.713Z,103543.81
2023-02-06T02:52:15.489Z,103540.50
2023-02-06T02:54:43.047Z,103552.44
2023-02-06T02:57:14.420Z,103544.00
2023-02-06T02:59:45.715Z,103543.28
2023-02-06T03:02:22.634Z,103536.88
2023-02-06T03:04:57.806Z,103534.53
2023-02-06T03:07:26.288Z,103537.28
2023-02-06T03:10:11.632Z,103548.34
2023-02-06T03:12:46.090Z,103554.44
2023-02-06T03:15:49.660Z,103555.59
2023-02-06T03:18:20.310Z,103552.22
2023-02-06T03:20:48.061Z,103560.84
2023-02-06T03:23:24.303Z,103565.53
2023-02-06T03:25:53.417Z,103555.75
2023-02-06T03:28:48.153Z,103546.78
2023-02-06T03:31:20.194Z,103549.00
2023-02-06T03:33:54.838Z,103539.06
2023-02-06T03:36:21.698Z,103535.97
2023-02-06T03:38:49.919Z,103538.38
2023-02-06T03:41:17.981Z,103532.03
2023-02-06T03:43:47.453Z,103528.38
2023-02-06T03:46:15.926Z,103532.66
2023-02-06T03:48:46.074Z,103522.31
2023-02-06T03:51:18.457Z,103525.91
2023-02-06T03:53:46.624Z,103525.28
2023-02-06T03:56:17.622Z,103530.78
2023-02-06T03:58:44.668Z,103529.91
2023-02-06T04:01:12.189Z,103536.50
2023-02-06T04:03:39.088Z,103536.59
2023-02-06T04:06:05.765Z,103541.59
2023-02-06T04:08:32.416Z,103537.84
2023-02-06T04:10:59.072Z,103534.88
2023-02-06T04:13:25.700Z,103538.13
2023-02-06T04:15:52.421Z,103544.34
2023-02-06T04:18:19.036Z,103536.16
2023-02-06T04:20:45.639Z,103535.69
2023-02-06T04:23:12.339Z,103540.03
2023-02-06T04:25:39.194Z,103538.50
2023-02-06T04:28:06.018Z,103525.53
2023-02-06T04:30:32.796Z,103515.31
2023-02-06T04:32:59.416Z,103526.22
2023-02-06T04:35:26.053Z,103530.22
2023-02-06T04:37:52.806Z,103518.81
2023-02-06T04:40:19.457Z,103514.94
2023-02-06T04:42:46.336Z,103513.06
2023-02-06T04:45:13.353Z,103505.38
2023-02-06T04:47:40.017Z,103499.72
2023-02-06T04:50:07.095Z,103510.53
2023-02-06T04:52:33.755Z,103502.84
2023-02-06T04:55:00.435Z,103495.38
2023-02-06T04:57:27.174Z,103485.88
2023-02-06T04:59:53.884Z,103497.78
2023-02-06T05:02:20.719Z,103504.28
2023-02-06T05:04:47.388Z,103505.44
2023-02-06T05:07:14.253Z,103503.31
2023-02-06T05:09:40.909Z,103502.28
2023-02-06T05:12:07.855Z,103507.19
2023-02-06T05:14:34.701Z,103503.75
2023-02-06T05:17:01.336Z,103491.38
2023-02-06T05:19:31.025Z,103498.53
2023-02-06T05:21:57.671Z,103498.78
2023-02-06T05:24:24.549Z,103498.25
2023-02-06T05:26:57.967Z,103506.69
2023-02-06T05:29:25.777Z,103507.78
2023-02-06T05:31:52.638Z,103501.00
2023-02-06T05:34:19.419Z,103491.06
2023-02-06T05:36:46.030Z,103498.19
2023-02-06T05:39:12.699Z,103495.03
2023-02-06T05:41:39.336Z,103505.50
2023-02-06T05:44:06.049Z,103503.72
2023-02-06T05:46:33.068Z,103503.16
2023-02-06T05:48:59.755Z,103501.94
2023-02-06T05:51:26.599Z,103504.50
2023-02-06T05:53:53.220Z,103504.22
2023-02-06T05:56:19.893Z,103506.28
2023-02-06T05:58:46.605Z,103508.25
2023-02-06T06:01:13.400Z,103508.53
2023-02-06T06:03:40.345Z,103511.22
2023-02-06T06:06:07.389Z,103511.31
2023-02-06T06:08:34.166Z,103509.78
2023-02-06T06:11:02.829Z,103511.84
2023-02-06T06:13:29.594Z,103520.78
2023-02-06T06:15:56.270Z,103517.22
2023-02-06T06:18:22.946Z,103518.31
2023-02-06T06:20:52.387Z,103533.59
2023-02-06T06:23:19.073Z,103543.63
2023-02-06T06:25:46.992Z,103539.53
2023-02-06T06:28:13.857Z,103542.16
2023-02-06T06:30:40.600Z,103535.22
2023-02-06T06:33:07.281Z,103534.38
2023-02-06T06:35:34.368Z,103529.84
2023-02-06T06:38:01.077Z,103533.06
2023-02-06T06:40:27.900Z,103533.47
2023-02-06T06:42:54.503Z,103526.03
2023-02-06T06:45:21.202Z,103526.03
2023-02-06T06:47:47.887Z,103526.16
2023-02-06T06:50:14.703Z,103525.94
2023-02-06T06:52:41.367Z,103510.53
2023-02-06T06:55:08.180Z,103518.16
2023-02-06T06:57:34.811Z,103510.69
2023-02-06T07:00:01.471Z,103516.13
2023-02-06T07:02:28.770Z,103507.78
2023-02-06T07:04:55.858Z,103499.25
2023-02-06T07:07:22.808Z,103496.97
2023-02-06T07:09:49.605Z,103501.28
2023-02-06T07:12:16.403Z,103508.44
2023-02-06T07:14:43.172Z,103501.03
2023-02-06T07:17:09.782Z,103511.22
2023-02-06T07:19:36.500Z,103513.69
2023-02-06T07:22:03.224Z,103515.13
2023-02-06T07:24:29.892Z,103511.38
2023-02-06T07:26:58.629Z,103509.50
2023-02-06T07:29:25.263Z,103511.16
2023-02-06T07:31:51.983Z,103523.00
2023-02-06T07:34:18.604Z,103527.13
2023-02-06T07:36:45.224Z,103527.97
2023-02-06T07:39:11.971Z,103532.28
2023-02-06T07:41:38.742Z,103545.56
2023-02-06T07:44:05.360Z,103551.94
2023-02-06T07:46:33.048Z,103542.63
2023-02-06T07:48:59.681Z,103535.63
2023-02-06T07:51:26.653Z,103540.84
2023-02-06T07:53:56.415Z,103540.09
2023-02-06T07:56:25.869Z,103531.31
2023-02-06T07:58:54.100Z,103525.91
2023-02-06T08:01:24.272Z,103526.56
2023-02-06T08:03:52.109Z,103517.22
2023-02-06T08:06:19.581Z,103517.44
2023-02-06T08:08:47.228Z,103524.25
2023-02-06T08:11:16.874Z,103520.81
2023-02-06T08:13:43.934Z,103514.66
2023-02-06T08:16:17.017Z,103519.22
2023-02-06T08:18:43.853Z,103514.16
2023-02-06T08:21:13.097Z,103516.78
2023-02-06T08:23:40.057Z,103509.16
2023-02-06T08:26:12.851Z,103512.03
2023-02-06T08:28:42.275Z,103514.31
2023-02-06T08:31:15.346Z,103520.44
2023-02-06T08:33:43.554Z,103515.94
2023-02-06T08:36:11.074Z,103522.19
2023-02-06T08:38:37.858Z,103514.63
2023-02-06T08:41:05.633Z,103506.81
2023-02-06T08:43:33.154Z,103513.09
2023-02-06T08:46:00.040Z,103508.56
2023-02-06T08:48:27.051Z,103511.16
2023-02-06T08:51:08.184Z,103511.59
2023-02-06T08:53:35.316Z,103511.47
2023-02-06T08:56:04.497Z,103520.19
2023-02-06T08:58:31.488Z,103516.13
2023-02-06T09:01:00.152Z,103520.97
2023-02-06T09:03:27.314Z,103501.84
2023-02-06T09:06:09.367Z,103501.41
2023-02-06T09:08:37.071Z,103511.44
2023-02-06T09:11:17.263Z,103506.88
2023-02-06T09:13:49.222Z,103517.81
2023-02-06T09:16:18.325Z,103513.63
2023-02-06T09:18:45.813Z,103514.00
2023-02-06T09:21:19.011Z,103515.78
2023-02-06T09:23:48.227Z,103510.53
2023-02-06T09:26:17.555Z,103525.41
2023-02-06T09:28:44.450Z,103536.06
2023-02-06T09:31:11.572Z,103542.25
2023-02-06T09:33:39.452Z,103545.13
2023-02-06T09:36:08.511Z,103539.09
2023-02-06T09:38:35.882Z,103542.56
2023-02-06T09:41:04.156Z,103557.78
2023-02-06T09:43:32.136Z,103557.69
2023-02-06T09:46:03.909Z,103562.72
2023-02-06T09:48:33.789Z,103560.13
2023-02-06T09:51:19.379Z,103565.75
2023-02-06T09:54:05.608Z,103560.66
2023-02-06T09:56:40.205Z,103552.38
2023-02-06T09:59:35.993Z,103535.94
2023-02-06T10:02:26.334Z,103540.72
2023-02-06T10:05:12.591Z,103543.59
2023-02-06T10:07:48.149Z,103553.28
2023-02-06T10:10:21.400Z,103555.97
2023-02-06T10:12:57.565Z,103554.19
2023-02-06T10:15:35.986Z,103558.59
2023-02-06T10:18:11.842Z,103569.31
2023-02-06T10:20:43.367Z,103578.44
2023-02-06T10:23:18.870Z,103581.78
2023-02-06T10:25:54.318Z,103585.72
2023-02-06T10:28:29.050Z,103591.97
2023-02-06T10:31:14.211Z,103584.34
2023-02-06T10:33:44.025Z,103572.09
2023-02-06T10:37:01.772Z,103567.53
2023-02-06T10:39:49.535Z,103568.06
2023-02-06T10:42:39.616Z,103565.31
2023-02-06T10:45:31.130Z,103554.78
2023-02-06T10:48:19.433Z,103547.66
2023-02-06T10:51:15.192Z,103551.78
2023-02-06T10:54:06.474Z,103542.66
2023-02-06T10:56:40.603Z,103539.69
2023-02-06T10:59:30.723Z,103537.50
2023-02-06T11:02:09.440Z,103545.66
2023-02-06T11:04:39.660Z,103568.16
2023-02-06T11:07:15.211Z,103559.47
2023-02-06T11:09:41.903Z,103550.78
2023-02-06T11:12:23.040Z,103548.97
2023-02-06T11:14:55.196Z,103558.94
2023-02-06T11:17:23.415Z,103564.00
2023-02-06T11:19:51.848Z,103573.63
2023-02-06T11:22:28.240Z,103564.19
2023-02-06T11:25:02.665Z,103553.31
2023-02-06T11:27:30.199Z,103572.72
2023-02-06T11:30:02.294Z,103566.44
2023-02-06T11:32:36.233Z,103571.41
2023-02-06T11:35:30.848Z,103567.97
2023-02-06T11:38:17.938Z,103563.31
2023-02-06T11:40:55.655Z,103570.91
2023-02-06T11:43:27.559Z,103581.56
2023-02-06T11:46:24.506Z,103590.34
2023-02-06T11:48:58.647Z,103574.09
2023-02-06T11:51:26.453Z,103575.53
2023-02-06T11:54:00.004Z,103574.88
2023-02-06T11:56:27.786Z,103574.91
2023-02-06T11:59:06.847Z,103572.16
2023-02-06T12:01:45.091Z,103575.75
2023-02-06T12:04:23.961Z,103569.09
2023-02-06T12:07:14.937Z,103581.63
2023-02-06T12:09:41.783Z,103587.44
2023-02-06T12:12:28.581Z,103574.66
2023-02-06T12:15:36.270Z,103573.81
2023-02-06T12:18:02.048Z,103578.34
2023-02-06T12:20:31.963Z,103573.47
2023-02-06T12:23:07.456Z,103572.72
2023-02-06T12:25:37.164Z,103584.47
2023-02-06T12:28:27.408Z,103583.16
2023-02-06T12:30:59.708Z,103584.75
2023-02-06T12:33:36.266Z,103591.28
2023-02-06T12:36:20.950Z,103580.66
2023-02-06T12:38:57.405Z,103590.69
2023-02-06T12:41:48.460Z,103604.03
2023-02-06T12:44:47.019Z,103600.50
2023-02-06T12:47:25.316Z,103607.34
2023-02-06T12:50:00.951Z,103605.00
2023-02-06T12:52:57.473Z,103616.22
2023-02-06T12:55:31.976Z,103606.72
2023-02-06T12:57:58.854Z,103616.34
2023-02-06T13:00:45.830Z,103612.00
2023-02-06T13:03:44.221Z,103627.63
2023-02-06T13:06:15.433Z,103620.28
2023-02-06T13:08:46.792Z,103615.75
2023-02-06T13:11:24.393Z,103615.94
2023-02-06T13:14:00.626Z,103622.38
2023-02-06T13:16:38.934Z,103618.72
2023-02-06T13:19:05.797Z,103625.50
2023-02-06T13:21:34.065Z,103630.28
2023-02-06T13:24:03.680Z,103627.94
2023-02-06T13:26:46.336Z,103624.59
2023-02-06T13:29:22.967Z,103630.84
2023-02-06T13:31:49.687Z,103623.34
2023-02-06T13:34:17.765Z,103617.84
2023-02-06T13:36:50.195Z,103621.59
2023-02-06T13:39:29.799Z,103618.06
2023-02-06T13:41:56.967Z,103629.75
2023-02-06T13:44:31.550Z,103639.47
2023-02-06T13:47:10.435Z,103629.75
2023-02-06T13:50:02.665Z,103631.81
2023-02-06T13:52:54.502Z,103628.97
2023-02-06T13:55:45.645Z,103629.56
2023-02-06T13:58:37.168Z,103635.22
2023-02-06T14:01:07.779Z,103637.47
2023-02-06T14:03:34.924Z,103640.03
2023-02-06T14:06:08.075Z,103640.50
2023-02-06T14:09:08.889Z,103649.44
2023-02-06T14:12:19.124Z,103662.03
2023-02-06T14:14:51.553Z,103665.03
2023-02-06T14:17:41.411Z,103656.44
2023-02-06T14:20:23.663Z,103653.13
2023-02-06T14:23:24.001Z,103655.03
2023-02-06T14:26:13.725Z,103671.44
2023-02-06T14:28:51.209Z,103674.97
2023-02-06T14:31:49.254Z,103665.97
2023-02-06T14:34:58.014Z,103658.56
2023-02-06T14:37:43.393Z,103671.97
2023-02-06T14:40:24.905Z,103670.19
2023-02-06T14:42:56.168Z,103680.75
2023-02-06T14:45:31.917Z,103691.38
2023-02-06T14:48:04.295Z,103693.22
2023-02-06T14:50:33.808Z,103701.19
2023-02-06T14:53:32.813Z,103708.22
2023-02-06T14:56:14.962Z,103718.56
2023-02-06T14:58:46.325Z,103715.50
2023-02-06T15:01:19.165Z,103713.09
2023-02-06T15:03:47.639Z,103718.97
2023-02-06T15:06:35.413Z,103714.56
2023-02-06T15:09:02.065Z,103718.63
2023-02-06T15:11:32.988Z,103715.41
2023-02-06T15:14:05.404Z,103717.69
2023-02-06T15:16:45.803Z,103721.50
2023-02-06T15:19:18.354Z,103720.38
2023-02-06T15:21:45.156Z,103726.69
2023-02-06T15:24:41.027Z,103728.06
2023-02-06T15:27:19.982Z,103735.94
2023-02-06T15:29:49.818Z,103734.06
2023-02-06T15:32:38.042Z,103746.53
2023-02-06T15:35:20.657Z,103746.75
2023-02-06T15:37:47.521Z,103758.16
2023-02-06T15:40:22.943Z,103752.78
2023-02-06T15:42:50.385Z,103753.25
2023-02-06T15:45:25.595Z,103756.22
2023-02-06T15:47:53.888Z,103742.00
2023-02-06T15:50:27.387Z,103758.22
2023-02-06T15:52:55.212Z,103769.91
2023-02-06T15:55:25.900Z,103770.81
2023-02-06T15:57:53.157Z,103771.91
2023-02-06T16:00:26.521Z,103781.00
2023-02-06T16:02:58.075Z,103779.09
2023-02-06T16:05:33.752Z,103781.50
2023-02-06T16:08:02.757Z,103782.16
2023-02-06T16:10:33.248Z,103791.81
2023-02-06T16:13:01.793Z,103784.34
2023-02-06T16:15:34.308Z,103783.63
2023-02-06T16:18:25.782Z,103787.94
2023-02-06T16:20:52.725Z,103795.53
2023-02-06T16:23:28.773Z,103791.91
2023-02-06T16:26:17.214Z,103792.59
2023-02-06T16:29:05.863Z,103796.97
2023-02-06T16:31:35.389Z,103794.91
2023-02-06T16:34:05.216Z,103788.91
2023-02-06T16:36:33.345Z,103786.94
2023-02-06T16:39:03.989Z,103789.91
2023-02-06T16:41:37.264Z,103802.63
2023-02-06T16:44:07.572Z,103796.28
2023-02-06T16:46:34.327Z,103808.34
2023-02-06T16:49:01.083Z,103812.84
2023-02-06T16:51:29.939Z,103820.91
2023-02-06T16:53:58.098Z,103826.72
2023-02-06T16:56:24.834Z,103830.25
2023-02-06T16:58:51.625Z,103831.66
2023-02-06T17:01:26.761Z,103825.63
2023-02-06T17:03:53.850Z,103823.00
2023-02-06T17:06:30.442Z,103827.09
2023-02-06T17:09:02.143Z,103828.16
2023-02-06T17:11:29.621Z,103826.59
2023-02-06T17:13:56.620Z,103826.44
2023-02-06T17:16:24.840Z,103837.91
2023-02-06T17:18:52.300Z,103830.59
2023-02-06T17:21:22.401Z,103837.28
2023-02-06T17:23:50.319Z,103842.63
2023-02-06T17:26:20.541Z,103846.22
2023-02-06T17:28:48.091Z,103844.69
2023-02-06T17:31:15.255Z,103847.13
2023-02-06T17:33:42.009Z,103857.72
2023-02-06T17:36:19.334Z,103850.69
2023-02-06T17:38:46.038Z,103853.66
2023-02-06T17:41:12.772Z,103851.78
2023-02-06T17:43:39.440Z,103856.38
2023-02-06T17:46:06.674Z,103856.38
2023-02-06T17:48:36.671Z,103851.03
2023-02-06T17:51:05.365Z,103848.69
2023-02-06T17:53:32.318Z,103860.19
2023-02-06T17:56:04.573Z,103851.31
2023-02-06T17:58:31.438Z,103852.88
2023-02-06T18:00:58.123Z,103864.38
2023-02-06T18:03:24.925Z,103860.66
2023-02-06T18:05:59.442Z,103856.84
2023-02-06T18:08:27.188Z,103859.94
2023-02-06T18:10:53.831Z,103861.56
2023-02-06T18:13:21.591Z,103848.25
2023-02-06T18:15:50.341Z,103841.91
2023-02-06T18:18:17.058Z,103847.16
2023-02-06T18:20:44.165Z,103848.31
2023-02-06T18:23:11.265Z,103833.69
2023-02-06T18:25:44.541Z,103838.47
2023-02-06T18:28:14.141Z,103832.75
2023-02-06T18:30:41.973Z,103844.16
2023-02-06T18:33:09.222Z,103836.94
2023-02-06T18:35:40.576Z,103831.38
2023-02-06T18:38:10.091Z,103832.47
2023-02-06T18:40:41.440Z,103832.22
2023-02-06T18:43:08.548Z,103844.59
2023-02-06T18:45:37.690Z,103840.50
2023-02-06T18:48:06.074Z,103845.84
2023-02-06T18:50:38.653Z,103836.88
2023-02-06T18:53:05.474Z,103850.59
2023-02-06T18:55:35.041Z,103860.81
2023-02-06T18:58:02.334Z,103853.56
2023-02-06T19:00:29.078Z,103851.13
2023-02-06T19:02:58.142Z,103856.25
2023-02-06T19:05:24.992Z,103850.56
2023-02-06T19:07:53.508Z,103856.50
2023-02-06T19:10:21.352Z,103872.84
2023-02-06T19:12:48.016Z,103872.34
2023-02-06T19:15:15.349Z,103867.03
2023-02-06T19:17:42.086Z,103869.13
2023-02-06T19:20:10.267Z,103861.25
2023-02-06T19:22:38.051Z,103855.75
2023-02-06T19:25:10.058Z,103861.50
2023-02-06T19:27:38.692Z,103871.78
2023-02-06T19:30:07.924Z,103866.84
2023-02-06T19:32:35.117Z,103873.53
2023-02-06T19:35:02.560Z,103874.72
2023-02-06T19:37:29.256Z,103878.03
2023-02-06T19:39:56.014Z,103885.50
2023-02-06T19:42:22.823Z,103891.47
2023-02-06T19:44:54.911Z,103892.25
2023-02-06T19:47:21.849Z,103898.81
2023-02-06T19:49:52.717Z,103903.34
2023-02-06T19:52:20.192Z,103903.94
2023-02-06T19:54:47.973Z,103896.69
2023-02-06T19:57:16.116Z,103892.84
2023-02-06T19:59:42.907Z,103902.31
2023-02-06T20:02:10.552Z,103900.19
2023-02-06T20:04:37.928Z,103901.91
2023-02-06T20:07:04.681Z,103910.38
2023-02-06T20:09:31.824Z,103905.63
2023-02-06T20:11:58.719Z,103895.09
2023-02-06T20:14:26.900Z,103883.19
2023-02-06T20:16:53.851Z,103898.91
2023-02-06T20:19:27.113Z,103905.34
2023-02-06T20:21:57.654Z,103915.50
2023-02-06T20:24:27.056Z,103913.28
2023-02-06T20:26:56.453Z,103912.25
2023-02-06T20:29:24.489Z,103900.50
2023-02-06T20:31:51.668Z,103900.41
2023-02-06T20:34:19.105Z,103895.97
2023-02-06T20:36:46.471Z,103905.53
2023-02-06T20:39:13.707Z,103905.13
2023-02-06T20:41:41.263Z,103907.53
2023-02-06T20:44:09.690Z,103900.97
2023-02-06T20:46:36.849Z,103909.44
2023-02-06T20:49:06.092Z,103912.41
2023-02-06T20:51:32.724Z,103900.75
2023-02-06T20:54:01.951Z,103901.25
2023-02-06T20:56:28.747Z,103905.38
2023-02-06T20:58:56.533Z,103903.13
2023-02-06T21:01:25.979Z,103908.84
2023-02-06T21:03:55.832Z,103912.28
2023-02-06T21:06:22.774Z,103912.06
2023-02-06T21:08:50.417Z,103909.13
2023-02-06T21:11:17.647Z,103909.13
2023-02-06T21:13:44.437Z,103912.34
2023-02-06T21:16:13.538Z,103915.84
2023-02-06T21:18:42.781Z,103918.56
2023-02-06T21:21:12.483Z,103922.56
2023-02-06T21:23:40.856Z,103931.09
2023-02-06T21:26:12.429Z,103931.47
2023-02-06T21:28:39.622Z,103932.28
2023-02-06T21:31:09.353Z,103926.78
2023-02-06T21:33:36.613Z,103923.97
2023-02-06T21:36:04.122Z,103933.59
2023-02-06T21:38:30.801Z,103936.03
2023-02-06T21:41:03.919Z,103937.28
2023-02-06T21:43:30.775Z,103937.09
2023-02-06T21:45:58.053Z,103930.25
2023-02-06T21:48:24.759Z,103925.03
2023-02-06T21:50:51.548Z,103930.25
2023-02-06T21:53:18.305Z,103922.88
2023-02-06T21:55:45.322Z,103914.63
2023-02-06T21:58:15.932Z,103913.13
2023-02-06T22:00:44.611Z,103906.19
2023-02-06T22:03:12.232Z,103914.81
2023-02-06T22:05:39.335Z,103919.25
2023-02-06T22:08:06.350Z,103921.75
2023-02-06T22:10:35.689Z,103921.63
2023-02-06T22:13:04.730Z,103927.25
2023-02-06T22:15:31.649Z,103940.91
2023-02-06T22:17:58.391Z,103937.47
2023-02-06T22:20:25.213Z,103938.75
2023-02-06T22:22:53.730Z,103941.47
2023-02-06T22:25:20.484Z,103937.59
2023-02-06T22:27:47.231Z,103944.66
2023-02-06T22:30:14.278Z,103943.84
2023-02-06T22:32:40.868Z,103938.88
2023-02-06T22:35:07.890Z,103934.75
2023-02-06T22:37:34.678Z,103937.28
2023-02-06T22:40:01.363Z,103944.44
2023-02-06T22:42:27.990Z,103937.16
2023-02-06T22:44:54.630Z,103939.34
2023-02-06T22:47:21.322Z,103950.69
2023-02-06T22:49:50.906Z,103949.56
2023-02-06T22:52:36.501Z,103937.63
2023-02-06T22:55:04.646Z,103936.72
2023-02-06T22:57:33.562Z,103948.53
2023-02-06T23:00:00.343Z,103952.53
2023-02-06T23:02:30.126Z,103955.72
2023-02-06T23:04:57.039Z,103947.06
2023-02-06T23:07:23.706Z,103949.69
2023-02-06T23:09:50.527Z,103961.03
2023-02-06T23:12:17.156Z,103961.03
2023-02-06T23:14:43.795Z,103958.31
2023-02-06T23:17:10.913Z,103964.91
2023-02-06T23:19:40.604Z,103962.84
2023-02-06T23:22:08.084Z,103962.84
2023-02-06T23:24:34.739Z,103956.38
2023-02-06T23:27:01.721Z,103957.97
2023-02-06T23:29:28.754Z,103961.97
2023-02-06T23:31:55.794Z,103967.84
2023-02-06T23:34:24.319Z,103965.78
2023-02-06T23:36:52.043Z,103967.97
2023-02-06T23:39:22.116Z,103969.22
2023-02-06T23:41:48.763Z,103978.19
2023-02-06T23:44:15.406Z,103978.06
2023-02-06T23:46:42.105Z,103968.31
2023-02-06T23:49:09.073Z,103972.03
2023-02-06T23:51:38.000Z,103971.38
2023-02-06T23:54:05.809Z,103971.25
2023-02-06T23:56:33.095Z,103968.97
2023-02-06T23:59:04.043Z,103978.06
